sensor_id;sensor_type;location;lat;lon;timestamp;temperature;humidity
19646;DHT22;9971;52.446;13.452;2022-12-29T00:00:45;9.70;99.90
19646;DHT22;9971;52.446;13.452;2022-12-29T00:05:53;9.60;99.90
19646;DHT22;9971;52.446;13.452;2022-12-29T00:10:50;9.70;99.90
19646;DHT22;9971;52.446;13.452;2022-12-29T00:15:53;9.70;99.90
19646;DHT22;9971;52.446;13.452;2022-12-29T00:20:55;9.70;99.90
19646;DHT22;9971;52.446;13.452;2022-12-29T00:26:03;9.80;99.90
19646;DHT22;9971;52.446;13.452;2022-12-29T00:31:11;9.80;99.90
19646;DHT22;9971;52.446;13.452;2022-12-29T00:36:23;9.90;99.90
19646;DHT22;9971;52.446;13.452;2022-12-29T00:41:24;9.90;99.90
19646;DHT22;9971;52.446;13.452;2022-12-29T00:46:33;9.90;99.90
19646;DHT22;9971;52.446;13.452;2022-12-29T00:51:35;9.90;99.90
19646;DHT22;9971;52.446;13.452;2022-12-29T00:56:37;9.90;99.90
19646;DHT22;9971;52.446;13.452;2022-12-29T01:01:39;9.90;99.90
19646;DHT22;9971;52.446;13.452;2022-12-29T01:06:42;9.90;99.90
19646;DHT22;9971;52.446;13.452;2022-12-29T01:11:44;9.90;99.90
19646;DHT22;9971;52.446;13.452;2022-12-29T01:16:47;9.90;99.90
19646;DHT22;9971;52.446;13.452;2022-12-29T01:21:49;9.90;99.90
19646;DHT22;9971;52.446;13.452;2022-12-29T01:26:51;9.90;99.90
19646;DHT22;9971;52.446;13.452;2022-12-29T01:31:53;9.90;99.90
19646;DHT22;9971;52.446;13.452;2022-12-29T01:36:56;9.90;99.90
19646;DHT22;9971;52.446;13.452;2022-12-29T01:41:58;9.90;99.90
19646;DHT22;9971;52.446;13.452;2022-12-29T01:47:01;10.00;99.90
19646;DHT22;9971;52.446;13.452;2022-12-29T01:52:04;10.00;99.90
19646;DHT22;9971;52.446;13.452;2022-12-29T01:57:07;9.90;99.90
19646;DHT22;9971;52.446;13.452;2022-12-29T02:02:07;9.90;99.90
19646;DHT22;9971;52.446;13.452;2022-12-29T02:07:10;9.80;99.90
19646;DHT22;9971;52.446;13.452;2022-12-29T02:12:11;9.80;99.90
19646;DHT22;9971;52.446;13.452;2022-12-29T02:17:19;9.80;99.90
19646;DHT22;9971;52.446;13.452;2022-12-29T02:22:23;9.80;99.90
19646;DHT22;9971;52.446;13.452;2022-12-29T02:27:27;9.80;99.90
19646;DHT22;9971;52.446;13.452;2022-12-29T02:43:24;10.00;99.90
19646;DHT22;9971;52.446;13.452;2022-12-29T02:48:31;10.00;99.90
19646;DHT22;9971;52.446;13.452;2022-12-29T02:53:32;10.00;99.90
19646;DHT22;9971;52.446;13.452;2022-12-29T02:58:39;10.10;99.90
19646;DHT22;9971;52.446;13.452;2022-12-29T03:09:04;10.10;99.90
19646;DHT22;9971;52.446;13.452;2022-12-29T03:14:12;10.20;99.90
19646;DHT22;9971;52.446;13.452;2022-12-29T03:19:32;10.20;99.90
19646;DHT22;9971;52.446;13.452;2022-12-29T03:24:36;10.30;99.90
19646;DHT22;9971;52.446;13.452;2022-12-29T03:29:38;10.30;99.90
19646;DHT22;9971;52.446;13.452;2022-12-29T03:34:38;10.40;99.90
19646;DHT22;9971;52.446;13.452;2022-12-29T03:39:40;10.40;99.90
19646;DHT22;9971;52.446;13.452;2022-12-29T03:44:43;10.30;99.90
19646;DHT22;9971;52.446;13.452;2022-12-29T03:49:45;10.40;99.90
19646;DHT22;9971;52.446;13.452;2022-12-29T03:54:47;10.40;99.90
19646;DHT22;9971;52.446;13.452;2022-12-29T03:59:49;10.50;99.90
19646;DHT22;9971;52.446;13.452;2022-12-29T04:04:52;10.50;99.90
19646;DHT22;9971;52.446;13.452;2022-12-29T04:09:54;10.50;99.90
19646;DHT22;9971;52.446;13.452;2022-12-29T04:14:57;10.50;99.90
19646;DHT22;9971;52.446;13.452;2022-12-29T04:19:59;10.50;99.90
19646;DHT22;9971;52.446;13.452;2022-12-29T04:25:08;10.50;99.90
19646;DHT22;9971;52.446;13.452;2022-12-29T04:30:11;10.60;99.90
19646;DHT22;9971;52.446;13.452;2022-12-29T04:35:13;10.60;99.90
19646;DHT22;9971;52.446;13.452;2022-12-29T04:40:16;10.60;99.90
19646;DHT22;9971;52.446;13.452;2022-12-29T04:45:18;10.60;99.90
19646;DHT22;9971;52.446;13.452;2022-12-29T04:50:21;10.60;99.90
19646;DHT22;9971;52.446;13.452;2022-12-29T04:55:23;10.60;99.90
19646;DHT22;9971;52.446;13.452;2022-12-29T05:00:26;10.60;99.90
19646;DHT22;9971;52.446;13.452;2022-12-29T05:05:28;10.70;99.90
19646;DHT22;9971;52.446;13.452;2022-12-29T05:10:31;10.70;99.90
19646;DHT22;9971;52.446;13.452;2022-12-29T05:15:33;10.70;99.90
19646;DHT22;9971;52.446;13.452;2022-12-29T05:20:36;10.80;99.90
19646;DHT22;9971;52.446;13.452;2022-12-29T05:25:38;10.80;99.90
19646;DHT22;9971;52.446;13.452;2022-12-29T05:30:40;10.80;99.90
19646;DHT22;9971;52.446;13.452;2022-12-29T05:35:43;10.80;99.90
19646;DHT22;9971;52.446;13.452;2022-12-29T05:40:45;10.80;99.90
19646;DHT22;9971;52.446;13.452;2022-12-29T05:45:48;10.90;99.90
19646;DHT22;9971;52.446;13.452;2022-12-29T05:50:50;11.00;99.90
19646;DHT22;9971;52.446;13.452;2022-12-29T05:55:52;11.10;99.90
19646;DHT22;9971;52.446;13.452;2022-12-29T06:00:55;11.20;99.90
19646;DHT22;9971;52.446;13.452;2022-12-29T06:05:57;11.20;99.90
19646;DHT22;9971;52.446;13.452;2022-12-29T06:11:00;11.20;99.90
19646;DHT22;9971;52.446;13.452;2022-12-29T06:16:02;11.30;99.90
19646;DHT22;9971;52.446;13.452;2022-12-29T06:21:05;11.30;99.90
19646;DHT22;9971;52.446;13.452;2022-12-29T06:26:07;11.30;99.90
19646;DHT22;9971;52.446;13.452;2022-12-29T06:31:10;11.20;99.90
19646;DHT22;9971;52.446;13.452;2022-12-29T06:36:11;11.30;99.90
19646;DHT22;9971;52.446;13.452;2022-12-29T06:41:14;11.30;99.90
19646;DHT22;9971;52.446;13.452;2022-12-29T06:46:16;11.30;99.90
19646;DHT22;9971;52.446;13.452;2022-12-29T06:51:19;11.30;99.90
19646;DHT22;9971;52.446;13.452;2022-12-29T06:56:21;11.30;99.90
19646;DHT22;9971;52.446;13.452;2022-12-29T07:01:24;11.30;99.90
19646;DHT22;9971;52.446;13.452;2022-12-29T07:06:26;11.30;99.90
19646;DHT22;9971;52.446;13.452;2022-12-29T07:11:29;11.30;99.90
19646;DHT22;9971;52.446;13.452;2022-12-29T07:16:31;11.30;99.90
19646;DHT22;9971;52.446;13.452;2022-12-29T07:21:33;11.30;99.90
19646;DHT22;9971;52.446;13.452;2022-12-29T07:26:36;11.30;99.90
19646;DHT22;9971;52.446;13.452;2022-12-29T07:31:38;11.30;99.90
19646;DHT22;9971;52.446;13.452;2022-12-29T07:36:41;11.30;99.90
19646;DHT22;9971;52.446;13.452;2022-12-29T07:41:43;11.40;99.90
19646;DHT22;9971;52.446;13.452;2022-12-29T07:46:46;11.50;99.90
19646;DHT22;9971;52.446;13.452;2022-12-29T07:51:48;11.40;99.90
19646;DHT22;9971;52.446;13.452;2022-12-29T07:56:51;11.40;99.90
19646;DHT22;9971;52.446;13.452;2022-12-29T08:01:53;11.40;99.90
19646;DHT22;9971;52.446;13.452;2022-12-29T08:06:56;11.50;99.90
19646;DHT22;9971;52.446;13.452;2022-12-29T08:11:58;11.50;99.90
19646;DHT22;9971;52.446;13.452;2022-12-29T08:17:01;11.50;99.90
19646;DHT22;9971;52.446;13.452;2022-12-29T08:22:03;11.60;99.90
19646;DHT22;9971;52.446;13.452;2022-12-29T08:27:05;11.70;99.90
19646;DHT22;9971;52.446;13.452;2022-12-29T08:32:07;11.70;99.90
19646;DHT22;9971;52.446;13.452;2022-12-29T08:37:10;11.70;99.90
19646;DHT22;9971;52.446;13.452;2022-12-29T08:42:12;11.70;99.90
19646;DHT22;9971;52.446;13.452;2022-12-29T08:47:15;11.80;99.90
19646;DHT22;9971;52.446;13.452;2022-12-29T08:52:17;11.70;99.90
19646;DHT22;9971;52.446;13.452;2022-12-29T08:57:20;11.70;99.90
19646;DHT22;9971;52.446;13.452;2022-12-29T09:02:22;11.70;99.90
19646;DHT22;9971;52.446;13.452;2022-12-29T09:07:25;11.70;99.90
19646;DHT22;9971;52.446;13.452;2022-12-29T09:12:27;11.70;99.90
19646;DHT22;9971;52.446;13.452;2022-12-29T09:17:29;11.80;99.90
19646;DHT22;9971;52.446;13.452;2022-12-29T09:22:38;11.90;99.90
19646;DHT22;9971;52.446;13.452;2022-12-29T09:27:40;11.90;99.90
19646;DHT22;9971;52.446;13.452;2022-12-29T09:32:42;11.90;99.90
19646;DHT22;9971;52.446;13.452;2022-12-29T09:37:45;12.00;99.90
19646;DHT22;9971;52.446;13.452;2022-12-29T09:42:58;12.10;99.90
19646;DHT22;9971;52.446;13.452;2022-12-29T09:47:55;12.20;99.90
19646;DHT22;9971;52.446;13.452;2022-12-29T09:58:24;12.40;99.90
19646;DHT22;9971;52.446;13.452;2022-12-29T10:03:24;12.50;99.90
19646;DHT22;9971;52.446;13.452;2022-12-29T10:08:29;12.60;99.90
19646;DHT22;9971;52.446;13.452;2022-12-29T10:13:46;12.80;99.90
19646;DHT22;9971;52.446;13.452;2022-12-29T10:18:52;12.90;99.90
19646;DHT22;9971;52.446;13.452;2022-12-29T10:23:52;13.00;99.90
19646;DHT22;9971;52.446;13.452;2022-12-29T10:28:59;13.10;99.90
19646;DHT22;9971;52.446;13.452;2022-12-29T10:34:01;13.20;99.90
19646;DHT22;9971;52.446;13.452;2022-12-29T10:39:05;13.20;99.90
19646;DHT22;9971;52.446;13.452;2022-12-29T10:44:04;13.30;99.90
19646;DHT22;9971;52.446;13.452;2022-12-29T10:49:06;13.40;99.90
19646;DHT22;9971;52.446;13.452;2022-12-29T10:54:13;13.50;99.90
19646;DHT22;9971;52.446;13.452;2022-12-29T10:59:16;13.70;99.90
19646;DHT22;9971;52.446;13.452;2022-12-29T11:04:28;13.80;99.90
19646;DHT22;9971;52.446;13.452;2022-12-29T11:09:28;13.80;99.90
19646;DHT22;9971;52.446;13.452;2022-12-29T11:14:30;13.70;99.90
19646;DHT22;9971;52.446;13.452;2022-12-29T11:19:32;13.80;99.90
19646;DHT22;9971;52.446;13.452;2022-12-29T11:24:33;13.70;99.90
19646;DHT22;9971;52.446;13.452;2022-12-29T11:29:37;13.70;99.90
19646;DHT22;9971;52.446;13.452;2022-12-29T11:34:38;13.60;99.90
19646;DHT22;9971;52.446;13.452;2022-12-29T11:39:52;13.40;99.90
19646;DHT22;9971;52.446;13.452;2022-12-29T11:44:53;13.30;99.90
19646;DHT22;9971;52.446;13.452;2022-12-29T11:49:59;13.40;99.90
19646;DHT22;9971;52.446;13.452;2022-12-29T11:55:01;13.50;99.90
19646;DHT22;9971;52.446;13.452;2022-12-29T12:00:13;13.70;99.90
19646;DHT22;9971;52.446;13.452;2022-12-29T12:05:13;13.80;99.90
19646;DHT22;9971;52.446;13.452;2022-12-29T12:10:20;13.90;99.90
19646;DHT22;9971;52.446;13.452;2022-12-29T12:15:23;14.00;99.90
19646;DHT22;9971;52.446;13.452;2022-12-29T12:20:42;14.00;99.90
19646;DHT22;9971;52.446;13.452;2022-12-29T12:26:02;14.00;99.90
19646;DHT22;9971;52.446;13.452;2022-12-29T12:31:01;14.10;99.90
19646;DHT22;9971;52.446;13.452;2022-12-29T12:37:16;14.20;99.90
19646;DHT22;9971;52.446;13.452;2022-12-29T12:46:42;14.20;99.90
19646;DHT22;9971;52.446;13.452;2022-12-29T12:51:47;14.20;99.90
19646;DHT22;9971;52.446;13.452;2022-12-29T12:56:51;14.30;99.90
19646;DHT22;9971;52.446;13.452;2022-12-29T13:02:10;14.30;99.90
19646;DHT22;9971;52.446;13.452;2022-12-29T13:07:28;14.30;99.90
19646;DHT22;9971;52.446;13.452;2022-12-29T13:12:49;14.30;99.90
19646;DHT22;9971;52.446;13.452;2022-12-29T13:17:56;14.40;99.90
19646;DHT22;9971;52.446;13.452;2022-12-29T13:23:08;14.40;99.90
19646;DHT22;9971;52.446;13.452;2022-12-29T13:28:23;14.40;99.90
19646;DHT22;9971;52.446;13.452;2022-12-29T13:33:49;14.50;99.90
19646;DHT22;9971;52.446;13.452;2022-12-29T13:38:48;14.50;99.90
19646;DHT22;9971;52.446;13.452;2022-12-29T13:43:49;14.60;99.90
19646;DHT22;9971;52.446;13.452;2022-12-29T13:48:56;14.60;99.90
19646;DHT22;9971;52.446;13.452;2022-12-29T13:59:37;14.60;99.90
19646;DHT22;9971;52.446;13.452;2022-12-29T14:04:41;14.70;99.90
19646;DHT22;9971;52.446;13.452;2022-12-29T14:09:46;14.70;99.90
19646;DHT22;9971;52.446;13.452;2022-12-29T14:14:47;14.80;99.90
19646;DHT22;9971;52.446;13.452;2022-12-29T14:19:51;14.80;99.90
19646;DHT22;9971;52.446;13.452;2022-12-29T14:24:51;14.80;99.90
19646;DHT22;9971;52.446;13.452;2022-12-29T14:29:53;14.80;99.90
19646;DHT22;9971;52.446;13.452;2022-12-29T14:34:56;14.90;99.90
19646;DHT22;9971;52.446;13.452;2022-12-29T14:40:13;14.90;99.90
19646;DHT22;9971;52.446;13.452;2022-12-29T14:45:20;14.80;99.90
19646;DHT22;9971;52.446;13.452;2022-12-29T14:50:14;14.80;99.90
19646;DHT22;9971;52.446;13.452;2022-12-29T14:55:46;14.90;99.90
19646;DHT22;9971;52.446;13.452;2022-12-29T15:00:48;14.80;99.90
19646;DHT22;9971;52.446;13.452;2022-12-29T15:05:53;14.90;99.90
19646;DHT22;9971;52.446;13.452;2022-12-29T15:16:25;14.90;99.90
19646;DHT22;9971;52.446;13.452;2022-12-29T15:21:29;14.90;99.90
19646;DHT22;9971;52.446;13.452;2022-12-29T15:26:38;14.90;99.90
19646;DHT22;9971;52.446;13.452;2022-12-29T15:31:45;14.90;99.90
19646;DHT22;9971;52.446;13.452;2022-12-29T15:36:40;14.90;99.90
19646;DHT22;9971;52.446;13.452;2022-12-29T15:41:44;14.90;99.90
19646;DHT22;9971;52.446;13.452;2022-12-29T15:46:50;15.00;99.90
19646;DHT22;9971;52.446;13.452;2022-12-29T15:51:52;15.00;99.90
19646;DHT22;9971;52.446;13.452;2022-12-29T15:56:54;15.00;99.90
19646;DHT22;9971;52.446;13.452;2022-12-29T16:01:57;15.00;99.90
19646;DHT22;9971;52.446;13.452;2022-12-29T16:06:59;15.00;99.90
19646;DHT22;9971;52.446;13.452;2022-12-29T16:12:06;15.00;99.90
19646;DHT22;9971;52.446;13.452;2022-12-29T16:17:09;15.00;99.90
19646;DHT22;9971;52.446;13.452;2022-12-29T16:22:11;15.00;99.90
19646;DHT22;9971;52.446;13.452;2022-12-29T16:27:19;15.00;99.90
19646;DHT22;9971;52.446;13.452;2022-12-29T16:32:26;15.00;99.90
19646;DHT22;9971;52.446;13.452;2022-12-29T16:37:31;15.00;99.90
19646;DHT22;9971;52.446;13.452;2022-12-29T16:42:33;15.00;99.90
19646;DHT22;9971;52.446;13.452;2022-12-29T16:47:34;14.00;99.90
19646;DHT22;9971;52.446;13.452;2022-12-29T16:52:37;12.70;99.90
19646;DHT22;9971;52.446;13.452;2022-12-29T16:57:39;12.10;99.90
19646;DHT22;9971;52.446;13.452;2022-12-29T17:02:41;11.80;99.90
19646;DHT22;9971;52.446;13.452;2022-12-29T17:07:43;11.60;99.90
19646;DHT22;9971;52.446;13.452;2022-12-29T17:12:46;11.40;99.90
19646;DHT22;9971;52.446;13.452;2022-12-29T17:17:48;11.40;99.90
19646;DHT22;9971;52.446;13.452;2022-12-29T17:22:50;11.40;99.90
19646;DHT22;9971;52.446;13.452;2022-12-29T17:27:53;11.30;99.90
19646;DHT22;9971;52.446;13.452;2022-12-29T17:32:57;11.40;99.90
19646;DHT22;9971;52.446;13.452;2022-12-29T17:37:59;11.40;99.90
19646;DHT22;9971;52.446;13.452;2022-12-29T17:43:01;11.50;99.90
19646;DHT22;9971;52.446;13.452;2022-12-29T17:48:04;11.50;99.90
19646;DHT22;9971;52.446;13.452;2022-12-29T17:53:06;11.50;99.90
19646;DHT22;9971;52.446;13.452;2022-12-29T17:58:14;11.50;99.90
19646;DHT22;9971;52.446;13.452;2022-12-29T18:03:16;11.40;99.90
19646;DHT22;9971;52.446;13.452;2022-12-29T18:08:18;11.40;99.90
19646;DHT22;9971;52.446;13.452;2022-12-29T18:13:22;11.30;99.90
19646;DHT22;9971;52.446;13.452;2022-12-29T18:18:24;11.20;99.90
19646;DHT22;9971;52.446;13.452;2022-12-29T18:23:27;11.10;99.90
19646;DHT22;9971;52.446;13.452;2022-12-29T18:28:28;11.00;99.90
19646;DHT22;9971;52.446;13.452;2022-12-29T18:33:30;10.80;99.90
19646;DHT22;9971;52.446;13.452;2022-12-29T18:38:33;10.70;99.90
19646;DHT22;9971;52.446;13.452;2022-12-29T18:43:35;10.70;99.90
19646;DHT22;9971;52.446;13.452;2022-12-29T18:48:38;10.70;99.90
19646;DHT22;9971;52.446;13.452;2022-12-29T18:53:40;10.60;99.90
19646;DHT22;9971;52.446;13.452;2022-12-29T18:58:42;10.40;99.90
19646;DHT22;9971;52.446;13.452;2022-12-29T19:03:45;10.40;99.90
19646;DHT22;9971;52.446;13.452;2022-12-29T19:08:47;10.40;99.90
19646;DHT22;9971;52.446;13.452;2022-12-29T19:13:50;10.40;99.90
19646;DHT22;9971;52.446;13.452;2022-12-29T19:18:52;10.30;99.90
19646;DHT22;9971;52.446;13.452;2022-12-29T19:23:55;10.30;99.90
19646;DHT22;9971;52.446;13.452;2022-12-29T19:28:57;10.30;99.90
19646;DHT22;9971;52.446;13.452;2022-12-29T19:34:00;10.30;99.90
19646;DHT22;9971;52.446;13.452;2022-12-29T19:39:01;10.20;99.90
19646;DHT22;9971;52.446;13.452;2022-12-29T19:44:04;10.20;99.90
19646;DHT22;9971;52.446;13.452;2022-12-29T19:49:06;10.20;99.90
19646;DHT22;9971;52.446;13.452;2022-12-29T19:54:09;10.20;99.90
19646;DHT22;9971;52.446;13.452;2022-12-29T19:59:11;10.20;99.90
19646;DHT22;9971;52.446;13.452;2022-12-29T20:04:13;10.20;99.90
19646;DHT22;9971;52.446;13.452;2022-12-29T20:09:17;10.20;99.90
19646;DHT22;9971;52.446;13.452;2022-12-29T20:14:19;10.30;99.90
19646;DHT22;9971;52.446;13.452;2022-12-29T20:19:22;10.30;99.90
19646;DHT22;9971;52.446;13.452;2022-12-29T20:24:24;10.30;99.90
19646;DHT22;9971;52.446;13.452;2022-12-29T20:29:27;10.30;99.90
19646;DHT22;9971;52.446;13.452;2022-12-29T20:34:29;10.50;99.90
19646;DHT22;9971;52.446;13.452;2022-12-29T20:39:31;10.60;99.90
19646;DHT22;9971;52.446;13.452;2022-12-29T20:44:33;10.70;99.90
19646;DHT22;9971;52.446;13.452;2022-12-29T20:49:36;10.80;99.90
19646;DHT22;9971;52.446;13.452;2022-12-29T20:54:38;10.80;99.90
19646;DHT22;9971;52.446;13.452;2022-12-29T20:59:41;10.80;99.90
19646;DHT22;9971;52.446;13.452;2022-12-29T21:04:43;10.90;99.90
19646;DHT22;9971;52.446;13.452;2022-12-29T21:09:45;10.80;99.90
19646;DHT22;9971;52.446;13.452;2022-12-29T21:14:48;10.90;99.90
19646;DHT22;9971;52.446;13.452;2022-12-29T21:19:51;10.80;99.90
19646;DHT22;9971;52.446;13.452;2022-12-29T21:24:53;10.80;99.90
19646;DHT22;9971;52.446;13.452;2022-12-29T21:29:55;10.80;99.90
19646;DHT22;9971;52.446;13.452;2022-12-29T21:34:58;10.70;99.90
19646;DHT22;9971;52.446;13.452;2022-12-29T21:40:00;10.70;99.90
19646;DHT22;9971;52.446;13.452;2022-12-29T21:45:02;10.70;99.90
19646;DHT22;9971;52.446;13.452;2022-12-29T21:50:10;10.60;99.90
19646;DHT22;9971;52.446;13.452;2022-12-29T21:55:13;10.50;99.90
19646;DHT22;9971;52.446;13.452;2022-12-29T22:00:15;10.40;99.90
19646;DHT22;9971;52.446;13.452;2022-12-29T22:05:23;10.30;99.90
19646;DHT22;9971;52.446;13.452;2022-12-29T22:10:31;10.30;99.90
19646;DHT22;9971;52.446;13.452;2022-12-29T22:15:39;10.20;99.90
19646;DHT22;9971;52.446;13.452;2022-12-29T22:20:42;10.20;99.90
19646;DHT22;9971;52.446;13.452;2022-12-29T22:25:44;10.20;99.90
19646;DHT22;9971;52.446;13.452;2022-12-29T22:30:47;10.20;99.90
19646;DHT22;9971;52.446;13.452;2022-12-29T22:35:49;10.00;99.90
19646;DHT22;9971;52.446;13.452;2022-12-29T22:40:56;10.00;99.90
19646;DHT22;9971;52.446;13.452;2022-12-29T22:45:54;9.80;99.90
19646;DHT22;9971;52.446;13.452;2022-12-29T22:50:56;9.60;99.90
19646;DHT22;9971;52.446;13.452;2022-12-29T22:56:03;9.50;99.90
19646;DHT22;9971;52.446;13.452;2022-12-29T23:01:04;9.40;99.90
19646;DHT22;9971;52.446;13.452;2022-12-29T23:06:07;9.30;99.90
19646;DHT22;9971;52.446;13.452;2022-12-29T23:11:09;9.30;99.90
19646;DHT22;9971;52.446;13.452;2022-12-29T23:16:11;9.20;99.90
19646;DHT22;9971;52.446;13.452;2022-12-29T23:21:13;9.20;99.90
19646;DHT22;9971;52.446;13.452;2022-12-29T23:26:15;9.20;99.90
19646;DHT22;9971;52.446;13.452;2022-12-29T23:31:17;9.20;99.90
19646;DHT22;9971;52.446;13.452;2022-12-29T23:36:19;9.20;99.90
19646;DHT22;9971;52.446;13.452;2022-12-29T23:41:21;9.20;99.90
19646;DHT22;9971;52.446;13.452;2022-12-29T23:46:24;9.20;99.90
19646;DHT22;9971;52.446;13.452;2022-12-29T23:51:25;9.10;99.90
19646;DHT22;9971;52.446;13.452;2022-12-29T23:56:28;9.10;99.90
